Terminal Aerodrome Forecast
Issued by NWS Quad Cities IA IL

Home | Current Version | Previous Version | Text Only | Print | Product List | Glossary On
Versions: 1 2 3 4 5 6 7 8 9 10 11 12 13 14 15 16 17 18 19 20 21 22
000
FTUS43 KDVN 192300
TAFMLI
TAF
KMLI 192320Z 2000/2024 28011KT P6SM FEW050
     FM200100 27003KT P6SM SKC
     FM200900 VRB02KT 5SM BR SKC
     FM201400 25006KT P6SM SCT050=

USA.gov is the U.S. government's official web portal to all federal, state and local government web resources and services.